Time;durP1;ratioP1;P1;durP2;ratioP2;P2;SDS_P1;SDS_P2;PMS_P1;PMS_P2;Temp;Humidity;BMP_temperature;BMP_pressure;BME280_temperature;BME280_humidity;BME280_pressure;Samples;Min_cycle;Max_cycle;Signal;HPM_P1;HPM_P2
2021/01/06 00:01:01;;;;;;;28.83;9.58;;;;;;;0.23;86.81;98381.97;2094702;85;21114;-65
2021/01/06 00:04:03;;;;;;;27.27;9.18;;;;;;;0.20;87.94;98379.45;2094715;85;21660;-67
2021/01/06 00:07:06;;;;;;;26.23;9.58;;;;;;;0.25;88.16;98385.80;2094673;85;21605;-64
2021/01/06 00:10:08;;;;;;;26.30;9.48;;;;;;;0.28;88.19;98398.16;2094703;85;21133;-64
2021/01/06 00:13:11;;;;;;;23.18;7.83;;;;;;;0.35;88.52;98396.27;2094916;85;21735;-64
2021/01/06 00:16:14;;;;;;;22.93;8.30;;;;;;;0.40;87.73;98393.11;2094532;85;21636;-63
2021/01/06 00:19:16;;;;;;;22.55;7.10;;;;;;;0.43;87.59;98399.93;2094636;85;21182;-64
2021/01/06 00:22:18;;;;;;;25.10;7.92;;;;;;;0.36;86.76;98395.39;2083515;85;21148;-63
2021/01/06 00:25:20;;;;;;;25.37;8.70;;;;;;;0.35;87.31;98397.56;2094917;85;21320;-63
2021/01/06 00:28:23;;;;;;;23.90;8.50;;;;;;;0.39;87.89;98400.89;2094719;85;21169;-63
2021/01/06 00:31:25;;;;;;;25.68;8.48;;;;;;;0.41;87.23;98399.14;2083566;85;21149;-63
2021/01/06 00:34:27;;;;;;;24.02;7.87;;;;;;;0.41;87.60;98399.97;2094881;85;21307;-64
2021/01/06 00:37:29;;;;;;;25.77;8.68;;;;;;;0.41;87.38;98403.84;2094848;85;21303;-63
2021/01/06 00:40:31;;;;;;;25.50;8.88;;;;;;;0.41;87.49;98404.30;2095062;85;21735;-64
2021/01/06 00:43:34;;;;;;;27.70;9.95;;;;;;;0.48;88.05;98407.12;2094896;85;21292;-64
2021/01/06 00:46:36;;;;;;;30.32;10.90;;;;;;;0.57;88.10;98409.44;2095046;85;21311;-64
2021/01/06 00:49:38;;;;;;;31.68;11.30;;;;;;;0.62;87.90;98412.75;2094849;85;21173;-64
2021/01/06 00:52:40;;;;;;;27.32;9.75;;;;;;;0.69;88.14;98409.11;2094873;85;21334;-65
2021/01/06 00:55:42;;;;;;;28.92;10.85;;;;;;;0.71;87.75;98412.11;2095045;85;21311;-64
2021/01/06 00:58:45;;;;;;;27.70;10.05;;;;;;;0.71;87.51;98419.39;2092895;85;21779;-63
2021/01/06 01:01:47;;;;;;;30.02;10.70;;;;;;;0.71;87.51;98419.39;2082721;85;21578;-64
2021/01/06 01:04:49;;;;;;;27.17;9.95;;;;;;;0.75;87.55;98416.27;2082802;85;21149;-64
2021/01/06 01:07:52;;;;;;;30.70;10.90;;;;;;;0.75;87.57;98420.14;2077001;86;21303;-65
2021/01/06 01:10:54;;;;;;;28.50;11.03;;;;;;;0.74;87.51;98424.47;2082311;85;21371;-65
2021/01/06 01:13:56;;;;;;;28.95;11.18;;;;;;;0.74;87.45;98427.51;2076759;86;21747;-64
2021/01/06 01:16:58;;;;;;;30.70;11.93;;;;;;;0.76;87.71;98424.00;2082327;85;21323;-64
2021/01/06 01:20:01;;;;;;;30.80;11.33;;;;;;;0.79;87.54;98422.63;2047347;86;21292;-64
2021/01/06 01:23:03;;;;;;;;;;;;;;;0.82;87.30;98415.20;2085171;85;21145;-64
2021/01/06 01:26:06;;;;;;;30.27;11.20;;;;;;;0.81;87.42;98414.83;2082375;85;20172;-64
2021/01/06 01:29:08;;;;;;;31.90;12.53;;;;;;;0.81;87.52;98419.53;2082496;85;21728;-64
2021/01/06 01:32:10;;;;;;;30.88;12.03;;;;;;;0.80;87.49;98420.42;2082336;85;21280;-64
2021/01/06 01:35:12;;;;;;;30.15;12.00;;;;;;;0.85;87.73;98419.02;2067456;86;21325;-65
2021/01/06 01:38:14;;;;;;;31.30;12.78;;;;;;;0.90;87.65;98421.47;2082474;85;21336;-65
2021/01/06 01:41:18;;;;;;;38.48;13.45;;;;;;;0.91;87.55;98425.30;2076958;86;21317;-64
2021/01/06 01:44:20;;;;;;;34.58;12.70;;;;;;;0.96;88.05;98427.31;2082328;85;21721;-65
2021/01/06 01:47:22;;;;;;;32.05;12.70;;;;;;;1.02;87.71;98427.56;2067693;86;21335;-65
2021/01/06 01:50:24;;;;;;;39.75;14.87;;;;;;;1.03;87.55;98424.96;2082270;85;21303;-64
2021/01/06 01:53:27;;;;;;;35.25;14.18;;;;;;;1.01;87.64;98425.43;2067638;86;21193;-65
2021/01/06 01:56:29;;;;;;;31.95;12.15;;;;;;;1.02;87.53;98428.42;2082264;85;21328;-65
2021/01/06 01:59:31;;;;;;;34.43;12.45;;;;;;;0.98;87.24;98424.23;2079778;84;21294;-64
2021/01/06 02:02:33;;;;;;;32.90;12.85;;;;;;;0.94;87.32;98430.37;2107451;84;21307;-64
2021/01/06 02:05:37;;;;;;;36.60;14.80;;;;;;;0.95;87.40;98434.66;2108164;84;21191;-65
2021/01/06 02:08:39;;;;;;;34.92;12.93;;;;;;;0.98;87.59;98425.52;2107755;84;21298;-64
2021/01/06 02:11:42;;;;;;;31.82;11.97;;;;;;;0.99;87.34;98428.52;2107425;84;21275;-64
2021/01/06 02:14:44;;;;;;;31.85;12.85;;;;;;;0.97;87.33;98428.16;2108404;84;21316;-63
2021/01/06 02:17:48;;;;;;;31.73;12.88;;;;;;;0.95;87.40;98418.29;2107643;84;21722;-64
2021/01/06 02:20:50;;;;;;;34.85;13.60;;;;;;;0.95;87.55;98428.63;2108035;84;21175;-64
2021/01/06 02:23:52;;;;;;;30.27;12.10;;;;;;;1.02;87.45;98422.39;2107770;84;21302;-64
2021/01/06 02:26:54;;;;;;;37.15;13.88;;;;;;;1.00;87.45;98417.73;2107664;84;21719;-64
2021/01/06 02:29:56;;;;;;;31.57;12.47;;;;;;;1.02;87.48;98418.52;2108339;84;21159;-65
2021/01/06 02:32:59;;;;;;;;;;;;;;;1.04;87.51;98423.21;2131096;83;21182;-64
2021/01/06 02:36:01;;;;;;;29.95;12.43;;;;;;;1.07;87.06;98424.87;2129251;84;20251;-64
2021/01/06 02:39:03;;;;;;;32.53;12.53;;;;;;;1.04;87.33;98424.05;2128784;84;21130;-64
2021/01/06 02:42:06;;;;;;;;;;;;;;;1.07;87.49;98417.95;2131458;84;21276;-64
2021/01/06 02:45:08;;;;;;;35.98;13.85;;;;;;;1.13;87.27;98416.93;2128691;84;20255;-63
2021/01/06 02:48:10;;;;;;;35.08;13.15;;;;;;;1.09;87.35;98413.58;2107855;84;21299;-64
2021/01/06 02:51:12;;;;;;;;;;;;;;;1.14;87.15;98409.59;2110389;84;21171;-63
2021/01/06 02:54:15;;;;;;;30.90;12.60;;;;;;;1.14;87.16;98413.01;2059699;85;20259;-64
2021/01/06 02:57:17;;;;;;;;;;;;;;;1.13;87.03;98411.77;2109876;84;21290;-64
2021/01/06 03:00:20;;;;;;;31.80;13.38;;;;;;;1.10;87.15;98407.98;2107450;84;20225;-64
2021/01/06 03:03:22;;;;;;;34.08;12.98;;;;;;;1.16;87.22;98408.63;2107284;84;21274;-64
2021/01/06 03:06:25;;;;;;;36.13;13.75;;;;;;;1.15;86.98;98415.13;2107615;84;21310;-64
2021/01/06 03:09:27;;;;;;;33.00;12.85;;;;;;;1.13;86.96;98413.05;2107349;84;21306;-64
2021/01/06 03:12:29;;;;;;;35.40;13.95;;;;;;;1.19;86.97;98416.74;2107388;84;21152;-64
2021/01/06 03:15:31;;;;;;;;;;;;;;;1.23;87.06;98417.52;2110201;84;21317;-64
2021/01/06 03:18:33;;;;;;;36.73;13.78;;;;;;;1.27;86.89;98412.66;2107466;84;20266;-66
2021/01/06 03:21:36;;;;;;;32.45;13.25;;;;;;;1.26;87.10;98420.00;2107599;84;21686;-64
2021/01/06 03:24:38;;;;;;;34.33;13.03;;;;;;;1.32;86.92;98414.64;2107846;84;21164;-64
2021/01/06 03:27:40;;;;;;;33.02;12.82;;;;;;;1.34;86.64;98416.30;2107453;84;21733;-64
2021/01/06 03:30:42;;;;;;;32.10;13.03;;;;;;;1.34;86.63;98416.75;2107798;84;21104;-64
2021/01/06 03:33:45;;;;;;;36.33;13.55;;;;;;;1.37;86.66;98424.41;2107489;84;21733;-64
2021/01/06 03:36:48;;;;;;;31.68;12.98;;;;;;;1.40;86.70;98429.48;2107220;84;21765;-64
2021/01/06 03:39:50;;;;;;;32.98;13.40;;;;;;;1.48;86.65;98432.69;2107339;84;21283;-64
2021/01/06 03:42:52;;;;;;;34.45;13.58;;;;;;;1.49;86.07;98429.64;2107582;84;21705;-64
2021/01/06 03:45:54;;;;;;;37.83;13.70;;;;;;;1.49;86.57;98425.31;2107675;84;21301;-63
2021/01/06 03:48:56;;;;;;;34.85;13.75;;;;;;;1.56;86.24;98425.52;2107454;84;21305;-64
2021/01/06 03:51:58;;;;;;;38.20;14.58;;;;;;;1.57;86.15;98425.09;2107564;84;21567;-64
2021/01/06 03:55:00;;;;;;;41.13;15.08;;;;;;;1.53;86.04;98428.20;2081304;84;21123;-64
2021/01/06 03:58:06;;;;;;;37.93;14.90;;;;;;;1.51;85.79;98424.83;2107435;84;21168;-64
2021/01/06 04:01:08;;;;;;;39.00;15.72;;;;;;;1.45;86.05;98431.92;2107171;84;21726;-63
2021/01/06 04:04:10;;;;;;;39.40;15.80;;;;;;;1.45;85.99;98428.04;2107374;84;21270;-63
2021/01/06 04:07:13;;;;;;;40.95;16.17;;;;;;;1.42;86.20;98432.84;2107312;84;21722;-64
2021/01/06 04:10:15;;;;;;;40.08;16.87;;;;;;;1.50;86.14;98432.18;2107594;84;21282;-64
2021/01/06 04:13:17;;;;;;;39.42;15.78;;;;;;;1.46;85.93;98434.45;2107463;84;21574;-64
2021/01/06 04:16:19;;;;;;;37.90;15.80;;;;;;;1.45;85.92;98439.67;2107777;84;21302;-64
2021/01/06 04:19:21;;;;;;;44.88;17.00;;;;;;;1.44;85.99;98444.00;2107451;84;21686;-66
2021/01/06 04:22:23;;;;;;;45.03;18.05;;;;;;;1.46;85.90;98447.83;2081348;84;21285;-64
2021/01/06 04:25:26;;;;;;;45.98;18.27;;;;;;;1.46;86.15;98444.80;2107480;84;21583;-65
2021/01/06 04:28:28;;;;;;;44.80;17.98;;;;;;;1.44;85.83;98439.27;2107304;84;21300;-65
2021/01/06 04:31:30;;;;;;;47.35;18.60;;;;;;;1.46;85.98;98438.78;2081363;84;21725;-65
2021/01/06 04:34:32;;;;;;;48.23;19.30;;;;;;;1.43;85.71;98439.72;2107329;84;21283;-65
2021/01/06 04:37:34;;;;;;;45.75;19.15;;;;;;;1.39;85.72;98441.99;2107316;84;21325;-66
2021/01/06 04:40:36;;;;;;;49.75;20.37;;;;;;;1.32;85.83;98447.81;2107571;84;21290;-65
2021/01/06 04:43:39;;;;;;;44.65;20.17;;;;;;;1.32;86.04;98440.48;2107556;84;21700;-65
2021/01/06 04:46:42;;;;;;;49.55;20.45;;;;;;;1.32;85.86;98440.05;2107672;84;21281;-67
2021/01/06 04:49:44;;;;;;;49.18;21.35;;;;;;;1.30;85.92;98445.70;2107485;84;21285;-64
2021/01/06 04:52:46;;;;;;;50.03;21.05;;;;;;;1.26;85.89;98446.67;2081487;84;21273;-65
2021/01/06 04:55:49;;;;;;;51.58;21.60;;;;;;;1.19;85.97;98452.91;2107541;84;21305;-65
2021/01/06 04:58:51;;;;;;;51.45;22.87;;;;;;;1.17;86.13;98452.95;2107518;84;21174;-64
2021/01/06 05:01:53;;;;;;;52.45;21.02;;;;;;;1.20;86.47;98446.86;2074111;84;21300;-65
2021/01/06 05:04:55;;;;;;;56.28;22.80;;;;;;;1.23;86.34;98451.10;2082294;85;21308;-64
2021/01/06 05:07:57;;;;;;;52.33;22.22;;;;;;;1.23;86.27;98446.77;2082261;85;21300;-64
2021/01/06 05:10:59;;;;;;;56.20;23.12;;;;;;;1.28;86.37;98447.92;2067523;86;21162;-66
2021/01/06 05:14:02;;;;;;;55.60;23.70;;;;;;;1.26;86.02;98441.97;2082529;85;21169;-64
2021/01/06 05:17:04;;;;;;;52.38;22.62;;;;;;;1.27;86.12;98444.50;2067154;86;21320;-64
2021/01/06 05:20:06;;;;;;;54.90;22.87;;;;;;;1.29;86.36;98439.28;2082540;85;21324;-64
2021/01/06 05:23:08;;;;;;;54.60;23.12;;;;;;;1.36;86.29;98450.67;2077007;86;21320;-65
2021/01/06 05:26:10;;;;;;;52.33;21.40;;;;;;;1.41;86.22;98446.69;2082810;85;21280;-64
2021/01/06 05:29:13;;;;;;;54.23;22.82;;;;;;;1.47;86.25;98444.37;2082343;85;21149;-64
2021/01/06 05:32:15;;;;;;;58.85;25.75;;;;;;;1.56;86.18;98445.37;2082564;85;21606;-64
2021/01/06 05:35:17;;;;;;;56.60;23.87;;;;;;;1.60;85.94;98442.26;2067252;86;21312;-64
2021/01/06 05:38:19;;;;;;;59.05;24.47;;;;;;;1.55;85.88;98440.66;2082441;85;21716;-64
2021/01/06 05:41:21;;;;;;;58.35;24.65;;;;;;;1.62;86.00;98445.17;2067257;86;21297;-64
2021/01/06 05:44:23;;;;;;;53.55;24.07;;;;;;;1.64;85.67;98448.57;2082579;85;21735;-65
2021/01/06 05:47:26;;;;;;;61.88;25.77;;;;;;;1.66;85.75;98445.94;2067205;86;21312;-64
2021/01/06 05:50:28;;;;;;;62.62;27.07;;;;;;;1.73;85.71;98439.69;2082504;85;21303;-64
2021/01/06 05:53:30;;;;;;;69.07;28.47;;;;;;;1.77;85.65;98434.81;2067256;86;21321;-64
2021/01/06 05:56:32;;;;;;;67.32;27.58;;;;;;;1.76;85.26;98434.41;2082420;85;21732;-64
2021/01/06 05:59:35;;;;;;;72.58;29.65;;;;;;;1.73;85.28;98436.64;2076502;86;21202;-65
2021/01/06 06:02:37;;;;;;;73.12;28.50;;;;;;;1.73;85.46;98443.10;2107122;84;21339;-65
2021/01/06 06:05:39;;;;;;;65.90;27.75;;;;;;;1.80;85.58;98437.30;2108296;84;21281;-64
2021/01/06 06:08:43;;;;;;;65.67;27.20;;;;;;;1.79;85.46;98437.35;2104085;84;21139;-65
2021/01/06 06:11:45;;;;;;;64.32;26.97;;;;;;;1.82;85.39;98441.13;2128856;84;21585;-64
2021/01/06 06:14:47;;;;;;;64.50;26.73;;;;;;;1.82;85.21;98441.97;2128676;84;21320;-65
2021/01/06 06:17:49;;;;;;;63.00;25.92;;;;;;;1.80;85.37;98440.34;2128797;84;21622;-65
2021/01/06 06:20:51;;;;;;;60.60;25.88;;;;;;;1.81;85.41;98446.77;2128698;84;21127;-64
2021/01/06 06:23:54;;;;;;;58.68;24.47;;;;;;;1.85;85.33;98444.48;2107839;84;21330;-65
2021/01/06 06:26:56;;;;;;;66.77;25.57;;;;;;;1.81;85.02;98440.72;2107435;84;21175;-66
2021/01/06 06:29:58;;;;;;;62.05;25.72;;;;;;;1.74;84.96;98449.14;2108414;84;21330;-65
2021/01/06 06:33:00;;;;;;;70.55;26.68;;;;;;;1.72;85.32;98449.19;2107428;84;21294;-65
2021/01/06 06:36:02;;;;;;;68.33;27.37;;;;;;;1.79;85.30;98448.98;2108005;84;21178;-65
2021/01/06 06:39:04;;;;;;;76.47;29.20;;;;;;;1.81;85.08;98448.48;2107384;84;21310;-65
2021/01/06 06:42:06;;;;;;;68.40;26.42;;;;;;;1.82;85.11;98458.77;2108198;84;21189;-65
2021/01/06 06:45:08;;;;;;;66.45;26.33;;;;;;;1.81;85.27;98461.41;2129051;84;21292;-65
2021/01/06 06:48:11;;;;;;;72.67;27.62;;;;;;;1.90;85.38;98466.31;2128923;84;21289;-65
2021/01/06 06:51:13;;;;;;;67.32;27.02;;;;;;;1.91;85.16;98478.33;2129143;84;21284;-65
2021/01/06 06:54:15;;;;;;;69.85;27.67;;;;;;;1.90;85.03;98477.49;2107389;84;21145;-65
2021/01/06 06:57:17;;;;;;;68.55;27.77;;;;;;;1.88;85.09;98487.05;2107583;84;21739;-65
2021/01/06 07:00:19;;;;;;;64.72;26.15;;;;;;;1.83;84.85;98488.92;2104052;84;21316;-65
2021/01/06 07:03:21;;;;;;;68.78;26.62;;;;;;;1.80;85.08;98489.48;2076748;86;21158;-66
2021/01/06 07:06:23;;;;;;;61.55;24.15;;;;;;;1.81;85.08;98485.55;2082622;85;21315;-67
2021/01/06 07:09:25;;;;;;;55.00;22.98;;;;;;;1.82;85.18;98489.81;2067209;86;21748;-65
2021/01/06 07:12:28;;;;;;;58.58;22.62;;;;;;;1.89;85.16;98486.59;2082684;85;21284;-65
2021/01/06 07:15:30;;;;;;;50.88;22.75;;;;;;;1.93;85.08;98487.36;2076407;86;21320;-66
2021/01/06 07:18:32;;;;;;;56.35;22.30;;;;;;;1.96;84.95;98487.27;2082211;85;21279;-64
2021/01/06 07:21:34;;;;;;;56.33;22.82;;;;;;;1.92;84.84;98494.72;2082486;85;21324;-64
2021/01/06 07:24:36;;;;;;;56.55;24.63;;;;;;;1.90;85.06;98502.53;2082232;85;21153;-64
2021/01/06 07:27:38;;;;;;;65.65;30.90;;;;;;;1.94;85.08;98497.66;2082350;85;21302;-64
2021/01/06 07:30:41;;;;;;;58.80;24.98;;;;;;;2.01;85.09;98498.30;2067613;86;21296;-64
2021/01/06 07:33:45;;;;;;;60.65;26.20;;;;;;;2.05;85.06;98493.00;2082245;85;21775;-65
2021/01/06 07:36:47;;;;;;;56.73;25.20;;;;;;;2.10;84.68;98503.20;2067023;86;21340;-65
2021/01/06 07:39:49;;;;;;;55.75;24.52;;;;;;;2.07;84.70;98496.38;2082425;85;21643;-65
2021/01/06 07:42:51;;;;;;;51.45;22.98;;;;;;;2.12;84.87;98496.67;2067623;86;21313;-66
2021/01/06 07:45:54;;;;;;;56.53;22.55;;;;;;;2.20;84.90;98495.99;2082242;85;21322;-65
2021/01/06 07:48:56;;;;;;;56.13;24.20;;;;;;;2.29;84.71;98494.38;2067336;86;21297;-64
2021/01/06 07:51:58;;;;;;;54.63;23.80;;;;;;;2.30;84.52;98497.81;2082351;85;21775;-64
2021/01/06 07:55:00;;;;;;;61.37;27.40;;;;;;;2.32;84.63;98505.92;2082566;85;21299;-65
2021/01/06 07:58:02;;;;;;;61.68;25.80;;;;;;;2.41;84.66;98504.78;2082166;85;21296;-65
2021/01/06 08:01:05;;;;;;;66.45;27.73;;;;;;;2.45;84.13;98499.91;2082578;85;21323;-65
2021/01/06 08:04:07;;;;;;;62.75;27.02;;;;;;;2.49;84.40;98506.67;2076454;86;21170;-64
2021/01/06 08:07:10;;;;;;;59.15;25.85;;;;;;;2.56;84.50;98505.57;2082330;85;21616;-64
2021/01/06 08:10:12;;;;;;;59.05;25.32;;;;;;;2.63;84.48;98499.75;2067223;86;21633;-64
2021/01/06 08:13:14;;;;;;;53.35;22.93;;;;;;;2.69;84.15;98495.64;2082438;85;21624;-64
2021/01/06 08:16:16;;;;;;;51.33;21.95;;;;;;;2.75;84.10;98495.42;2076392;86;21154;-64
2021/01/06 08:19:19;;;;;;;;;;;;;;;2.79;84.05;98493.59;2084513;86;21284;-64
2021/01/06 08:22:21;;;;;;;51.65;22.40;;;;;;;2.80;84.08;98500.90;2067693;86;20248;-65
2021/01/06 08:25:23;;;;;;;58.00;23.40;;;;;;;2.84;83.82;98507.67;2082657;85;21303;-64
2021/01/06 08:28:26;;;;;;;53.40;22.90;;;;;;;2.82;83.74;98504.30;2082418;85;21280;-64
2021/01/06 08:31:28;;;;;;;47.20;20.37;;;;;;;2.83;84.08;98497.77;2082288;85;21315;-64
2021/01/06 08:34:31;;;;;;;48.87;20.92;;;;;;;2.91;83.93;98493.61;2076270;86;21138;-64
2021/01/06 08:37:33;;;;;;;47.83;19.85;;;;;;;2.92;83.52;98488.37;2082640;85;21324;-64
2021/01/06 08:40:35;;;;;;;52.38;22.05;;;;;;;2.96;83.34;98486.53;2082431;86;21312;-65
2021/01/06 08:43:38;;;;;;;45.88;21.12;;;;;;;3.05;83.81;98494.42;2082428;85;21339;-63
2021/01/06 08:46:41;;;;;;;55.70;23.38;;;;;;;3.12;83.38;98491.55;2082198;85;21292;-66
2021/01/06 08:49:45;;;;;;;54.73;22.22;;;;;;;3.12;83.18;98490.25;2082508;85;21291;-65
2021/01/06 08:52:47;;;;;;;55.67;22.32;;;;;;;3.20;83.70;98493.02;2076826;86;21162;-64
2021/01/06 08:55:49;;;;;;;55.12;22.37;;;;;;;3.21;83.08;98500.73;2082822;85;21178;-65
2021/01/06 08:58:52;;;;;;;49.23;21.33;;;;;;;3.24;82.99;98494.59;2076507;86;21170;-64
2021/01/06 09:01:54;;;;;;;55.55;24.98;;;;;;;3.21;83.07;98499.90;2082306;85;21345;-65
2021/01/06 09:04:56;;;;;;;54.55;21.52;;;;;;;3.20;83.04;98493.84;2076703;86;21158;-65
2021/01/06 09:07:59;;;;;;;49.83;20.27;;;;;;;3.19;82.69;98488.29;2082547;85;21319;-66
2021/01/06 09:11:01;;;;;;;53.05;22.10;;;;;;;3.18;82.75;98485.76;2077041;86;21284;-65
2021/01/06 09:14:03;;;;;;;50.60;21.87;;;;;;;3.24;83.05;98484.23;2082715;85;21150;-65
2021/01/06 09:17:05;;;;;;;50.70;22.87;;;;;;;3.25;82.16;98480.28;2082322;85;21162;-65
2021/01/06 09:20:08;;;;;;;49.88;20.57;;;;;;;3.18;82.70;98471.04;2076520;86;21186;-65
2021/01/06 09:23:10;;;;;;;52.38;22.45;;;;;;;3.23;82.96;98478.64;2082362;85;21149;-64
2021/01/06 09:26:12;;;;;;;46.85;22.45;;;;;;;3.22;82.75;98484.29;2067446;86;21745;-65
2021/01/06 09:29:14;;;;;;;48.68;21.85;;;;;;;3.27;83.04;98488.00;2082576;85;21296;-65
2021/01/06 09:32:16;;;;;;;48.10;20.48;;;;;;;3.21;82.85;98481.75;2076759;86;21775;-66
2021/01/06 09:35:19;;;;;;;47.58;20.65;;;;;;;3.29;83.06;98480.56;2082758;85;21153;-65
2021/01/06 09:38:21;;;;;;;47.43;20.40;;;;;;;3.39;82.88;98477.62;2082344;85;21304;-65
2021/01/06 09:41:23;;;;;;;50.70;21.80;;;;;;;3.39;82.42;98472.00;2082427;85;21784;-65
2021/01/06 09:44:26;;;;;;;48.35;21.82;;;;;;;3.47;82.77;98467.35;2076531;86;21189;-65
2021/01/06 09:47:28;;;;;;;50.88;21.25;;;;;;;3.52;82.60;98469.80;2082552;85;21772;-64
2021/01/06 09:50:30;;;;;;;45.58;21.15;;;;;;;3.62;82.63;98468.97;2082504;85;21165;-64
2021/01/06 09:53:33;;;;;;;48.38;20.45;;;;;;;3.66;81.70;98475.73;2082247;85;21170;-64
2021/01/06 09:56:35;;;;;;;49.03;22.13;;;;;;;3.60;82.21;98470.33;2082287;85;21292;-64
2021/01/06 09:59:37;;;;;;;49.55;22.02;;;;;;;3.68;81.87;98473.94;2082643;85;21157;-64
2021/01/06 10:02:39;;;;;;;50.12;23.45;;;;;;;3.70;82.32;98467.39;2091585;85;21156;-65
2021/01/06 10:05:42;;;;;;;50.75;23.75;;;;;;;3.84;82.36;98464.27;2107448;84;21291;-64
2021/01/06 10:08:44;;;;;;;47.48;22.50;;;;;;;3.94;82.13;98460.41;2108248;84;21325;-65
2021/01/06 10:11:46;;;;;;;49.42;22.55;;;;;;;3.96;81.88;98464.60;2107524;84;21711;-65
2021/01/06 10:14:48;;;;;;;45.73;19.98;;;;;;;4.03;81.75;98446.21;2107436;84;21283;-64
2021/01/06 10:17:50;;;;;;;46.92;20.95;;;;;;;4.05;80.93;98445.69;2107995;84;21168;-65
2021/01/06 10:20:53;;;;;;;51.75;21.62;;;;;;;4.08;81.22;98441.23;2107376;84;21807;-64
2021/01/06 10:23:55;;;;;;;48.50;21.30;;;;;;;4.18;81.28;98426.56;2108057;84;21167;-65
2021/01/06 10:26:58;;;;;;;47.53;20.10;;;;;;;4.30;81.14;98422.17;2107437;84;21141;-64
2021/01/06 10:30:00;;;;;;;42.95;19.95;;;;;;;4.55;81.07;98415.47;2107742;84;21282;-64
2021/01/06 10:33:02;;;;;;;43.02;20.10;;;;;;;4.75;79.78;98417.20;2108172;84;21603;-65
2021/01/06 10:36:05;;;;;;;42.75;18.92;;;;;;;4.59;79.80;98430.48;2128667;83;21324;-64
2021/01/06 10:39:07;;;;;;;48.40;20.72;;;;;;;4.64;80.18;98434.56;2128893;84;21284;-64
2021/01/06 10:42:09;;;;;;;39.92;17.73;;;;;;;4.72;80.49;98429.03;2107504;84;21146;-66
2021/01/06 10:45:11;;;;;;;43.90;19.00;;;;;;;4.78;79.88;98423.55;2107636;84;21726;-65
2021/01/06 10:48:13;;;;;;;42.62;18.65;;;;;;;4.83;78.91;98419.48;2107955;84;21199;-64
2021/01/06 10:51:16;;;;;;;38.78;17.60;;;;;;;4.86;80.12;98418.88;2128946;84;21147;-64
2021/01/06 10:54:18;;;;;;;43.15;18.02;;;;;;;5.09;80.19;98416.17;2107616;84;21744;-64
2021/01/06 10:57:20;;;;;;;;;;;;;;;5.20;79.48;98421.27;2110358;84;21180;-65
2021/01/06 11:00:22;;;;;;;34.53;15.60;;;;;;;5.30;77.94;98415.20;2085365;85;20165;-65
2021/01/06 11:03:25;;;;;;;38.90;16.20;;;;;;;5.30;78.39;98410.44;2107613;84;21323;-64
2021/01/06 11:06:27;;;;;;;38.75;16.45;;;;;;;5.40;77.96;98409.09;2081272;84;21335;-64
2021/01/06 11:09:29;;;;;;;36.28;15.70;;;;;;;5.40;77.96;98409.09;2107348;84;21271;-64
2021/01/06 11:12:32;;;;;;;37.65;15.25;;;;;;;5.36;78.21;98398.00;2107970;84;21171;-64
2021/01/06 11:15:34;;;;;;;38.88;16.37;;;;;;;5.25;78.00;98403.32;2107457;84;21314;-64
2021/01/06 11:18:36;;;;;;;40.00;16.25;;;;;;;5.12;77.82;98394.77;2108003;84;21160;-65
2021/01/06 11:21:39;;;;;;;38.53;15.60;;;;;;;4.98;77.89;98381.09;2128668;83;21166;-65
2021/01/06 11:24:42;;;;;;;34.27;14.70;;;;;;;4.83;78.04;98378.73;2128811;84;21158;-64
2021/01/06 11:27:44;;;;;;;44.93;18.45;;;;;;;4.81;78.48;98370.61;2128746;84;21729;-64
2021/01/06 11:30:46;;;;;;;42.48;17.62;;;;;;;4.85;78.43;98361.77;2128667;84;21149;-66
2021/01/06 11:33:49;;;;;;;38.67;17.37;;;;;;;4.93;78.85;98352.31;2107400;84;21303;-64
2021/01/06 11:36:51;;;;;;;36.40;16.25;;;;;;;5.03;78.25;98345.34;2081454;84;21307;-65
2021/01/06 11:39:53;;;;;;;41.50;18.07;;;;;;;5.00;77.55;98331.66;2108174;84;21144;-66
2021/01/06 11:42:56;;;;;;;39.23;15.80;;;;;;;4.95;77.51;98330.55;2129105;84;21284;-65
2021/01/06 11:45:58;;;;;;;;;;;;;;;4.86;77.51;98321.89;2109729;84;21755;-65
2021/01/06 11:49:00;;;;;;;43.53;17.53;;;;;;;4.77;77.91;98315.36;2107941;84;20222;-65
2021/01/06 11:52:03;;;;;;;37.60;17.20;;;;;;;4.70;77.42;98315.25;2107345;84;21274;-64
2021/01/06 11:55:05;;;;;;;42.73;17.17;;;;;;;4.60;78.03;98317.88;2107820;84;21575;-65
2021/01/06 11:58:07;;;;;;;43.02;18.80;;;;;;;4.51;78.34;98305.68;2107764;84;21289;-64
2021/01/06 12:01:09;;;;;;;42.78;18.98;;;;;;;4.56;78.76;98302.04;2107692;84;21286;-64
2021/01/06 12:04:12;;;;;;;42.93;18.77;;;;;;;4.41;77.51;98288.83;2069778;83;21340;-64
2021/01/06 12:07:14;;;;;;;45.48;19.50;;;;;;;4.14;78.14;98293.01;2082237;85;21154;-65
2021/01/06 12:10:16;;;;;;;41.42;17.85;;;;;;;3.97;79.34;98300.68;2076654;86;21608;-64
2021/01/06 12:13:19;;;;;;;45.80;18.27;;;;;;;3.97;79.93;98296.32;2082061;85;21190;-63
2021/01/06 12:16:22;;;;;;;39.13;16.90;;;;;;;3.98;79.94;98286.34;2076257;86;21783;-64
2021/01/06 12:19:25;;;;;;;47.88;18.80;;;;;;;3.97;79.60;98279.92;2082409;85;21621;-64
2021/01/06 12:22:27;;;;;;;41.40;18.70;;;;;;;3.89;79.90;98272.91;2067140;86;21768;-63
2021/01/06 12:25:29;;;;;;;41.88;19.05;;;;;;;3.88;80.19;98264.29;2082273;85;21320;-64
2021/01/06 12:28:31;;;;;;;44.58;18.87;;;;;;;3.87;80.55;98279.92;2076797;86;21320;-64
2021/01/06 12:31:34;;;;;;;;;;;;;;;3.98;80.45;98269.47;2084778;85;21308;-64
2021/01/06 12:34:36;;;;;;;42.10;18.90;;;;;;;3.96;80.68;98277.76;2067455;86;20260;-64
2021/01/06 12:37:39;;;;;;;44.33;18.70;;;;;;;4.07;80.65;98283.80;2062621;85;21304;-64
2021/01/06 12:40:41;;;;;;;45.73;18.95;;;;;;;4.16;80.76;98285.98;2082371;85;21173;-64
2021/01/06 12:43:44;;;;;;;47.90;20.30;;;;;;;4.36;81.07;98284.28;2076688;86;21796;-64
2021/01/06 12:46:46;;;;;;;44.30;19.15;;;;;;;4.55;80.06;98278.27;2082846;85;21157;-64
2021/01/06 12:49:48;;;;;;;46.28;19.62;;;;;;;4.56;78.96;98280.79;2076883;86;21324;-65
2021/01/06 12:52:50;;;;;;;45.70;19.27;;;;;;;4.49;78.96;98269.82;2082400;85;21150;-64
2021/01/06 12:55:54;;;;;;;45.95;20.50;;;;;;;4.38;79.24;98265.56;2076995;86;21296;-64
2021/01/06 12:58:56;;;;;;;47.27;21.55;;;;;;;4.32;80.03;98267.14;2082431;85;21756;-64
2021/01/06 13:01:59;;;;;;;47.80;20.45;;;;;;;4.19;79.74;98261.65;2084993;84;21757;-64
2021/01/06 13:05:01;;;;;;;43.00;19.20;;;;;;;4.02;79.76;98262.84;2087177;85;21125;-65
2021/01/06 13:08:04;;;;;;;47.65;21.10;;;;;;;3.87;80.33;98252.22;2087431;85;21165;-64
2021/01/06 13:11:07;;;;;;;42.85;19.32;;;;;;;3.81;80.62;98254.62;2111026;84;21283;-64
2021/01/06 13:14:09;;;;;;;42.88;17.87;;;;;;;3.82;80.79;98269.72;2087223;85;21304;-64
2021/01/06 13:17:11;;;;;;;41.20;18.25;;;;;;;3.79;80.54;98253.86;2111657;84;21200;-64
2021/01/06 13:20:16;;;;;;;42.95;16.73;;;;;;;3.77;80.60;98261.31;2087061;85;21172;-64
2021/01/06 13:23:18;;;;;;;43.45;18.05;;;;;;;3.68;80.64;98261.24;2045877;87;21185;-64
2021/01/06 13:26:20;;;;;;;44.63;18.75;;;;;;;3.73;80.96;98261.05;2110595;84;21282;-64
2021/01/06 13:29:23;;;;;;;;;;;;;;;3.74;80.62;98256.25;2113388;84;21160;-64
2021/01/06 13:32:25;;;;;;;43.00;17.97;;;;;;;3.71;80.53;98249.91;2110750;84;20150;-64
2021/01/06 13:35:28;;;;;;;44.90;20.68;;;;;;;3.68;80.65;98246.98;2111012;84;21168;-64
2021/01/06 13:38:30;;;;;;;43.60;18.42;;;;;;;3.60;80.79;98240.80;2110692;84;21306;-64
2021/01/06 13:41:32;;;;;;;41.00;17.85;;;;;;;3.56;81.07;98241.86;2110561;84;21312;-67
2021/01/06 13:44:34;;;;;;;42.98;18.50;;;;;;;3.59;81.31;98239.56;2084603;84;21330;-65
2021/01/06 13:47:37;;;;;;;;;;;;;;;3.67;81.16;98237.50;2086977;84;21279;-63
2021/01/06 13:50:39;;;;;;;41.73;17.77;;;;;;;3.69;81.17;98236.97;2110939;84;20126;-64
2021/01/06 13:53:42;;;;;;;42.40;17.20;;;;;;;3.68;80.87;98232.71;2110738;84;21633;-63
2021/01/06 13:56:44;;;;;;;44.30;20.68;;;;;;;3.63;80.81;98229.02;2110610;84;21227;-64
2021/01/06 13:59:46;;;;;;;51.42;21.87;;;;;;;3.54;81.09;98225.97;2110452;84;21142;-64
2021/01/06 14:02:48;;;;;;;73.37;40.10;;;;;;;3.45;81.17;98226.73;2111251;83;21730;-65
2021/01/06 14:05:51;;;;;;;49.20;21.37;;;;;;;3.40;81.55;98222.64;2095417;85;21181;-65
2021/01/06 14:08:53;;;;;;;;;;;;;;;3.44;81.63;98226.80;2143878;83;21308;-64
2021/01/06 14:11:55;;;;;;;64.37;33.60;;;;;;;3.44;81.63;98225.50;2114647;83;20246;-66